sensor_id;sensor_type;location;lat;lon;timestamp;P1;durP1;ratioP1;P2;durP2;ratioP2
8359;SDS011;4217;48.762;11.428;2022-12-20T00:09:56;30.30;;;27.23;;
8359;SDS011;4217;48.762;11.428;2022-12-20T00:19:58;30.80;;;27.67;;
8359;SDS011;4217;48.762;11.428;2022-12-20T00:29:59;33.27;;;29.80;;
8359;SDS011;4217;48.762;11.428;2022-12-20T00:40:02;32.67;;;28.93;;
8359;SDS011;4217;48.762;11.428;2022-12-20T00:50:05;29.73;;;26.57;;
8359;SDS011;4217;48.762;11.428;2022-12-20T01:00:11;31.30;;;28.00;;
8359;SDS011;4217;48.762;11.428;2022-12-20T01:10:14;31.73;;;28.50;;
8359;SDS011;4217;48.762;11.428;2022-12-20T01:20:15;32.90;;;29.63;;
8359;SDS011;4217;48.762;11.428;2022-12-20T01:30:17;32.77;;;29.43;;
8359;SDS011;4217;48.762;11.428;2022-12-20T01:40:19;30.33;;;27.50;;
8359;SDS011;4217;48.762;11.428;2022-12-20T01:50:22;31.77;;;28.53;;
8359;SDS011;4217;48.762;11.428;2022-12-20T02:00:24;32.90;;;29.67;;
8359;SDS011;4217;48.762;11.428;2022-12-20T02:10:27;34.17;;;30.70;;
8359;SDS011;4217;48.762;11.428;2022-12-20T02:31:07;31.40;;;28.20;;
8359;SDS011;4217;48.762;11.428;2022-12-20T02:41:15;32.23;;;28.83;;
8359;SDS011;4217;48.762;11.428;2022-12-20T02:51:30;32.93;;;29.63;;
8359;SDS011;4217;48.762;11.428;2022-12-20T03:01:38;32.13;;;28.87;;
8359;SDS011;4217;48.762;11.428;2022-12-20T03:11:45;32.67;;;29.37;;
8359;SDS011;4217;48.762;11.428;2022-12-20T03:21:46;31.27;;;28.00;;
8359;SDS011;4217;48.762;11.428;2022-12-20T03:31:48;30.97;;;27.80;;
8359;SDS011;4217;48.762;11.428;2022-12-20T03:41:50;32.10;;;28.77;;
8359;SDS011;4217;48.762;11.428;2022-12-20T03:51:52;33.20;;;29.70;;
8359;SDS011;4217;48.762;11.428;2022-12-20T04:01:54;30.90;;;27.90;;
8359;SDS011;4217;48.762;11.428;2022-12-20T04:11:55;31.87;;;28.73;;
8359;SDS011;4217;48.762;11.428;2022-12-20T04:21:57;32.17;;;28.77;;
8359;SDS011;4217;48.762;11.428;2022-12-20T04:32:19;33.33;;;30.00;;
8359;SDS011;4217;48.762;11.428;2022-12-20T04:42:21;31.43;;;28.27;;
8359;SDS011;4217;48.762;11.428;2022-12-20T04:52:24;32.07;;;28.77;;
8359;SDS011;4217;48.762;11.428;2022-12-20T05:02:48;31.60;;;28.50;;
8359;SDS011;4217;48.762;11.428;2022-12-20T05:12:54;32.33;;;29.03;;
8359;SDS011;4217;48.762;11.428;2022-12-20T05:23:06;31.77;;;28.57;;
8359;SDS011;4217;48.762;11.428;2022-12-20T05:33:37;30.33;;;27.37;;
8359;SDS011;4217;48.762;11.428;2022-12-20T05:43:39;31.27;;;28.07;;
8359;SDS011;4217;48.762;11.428;2022-12-20T05:53:41;30.57;;;27.57;;
8359;SDS011;4217;48.762;11.428;2022-12-20T06:03:42;32.50;;;29.33;;
8359;SDS011;4217;48.762;11.428;2022-12-20T06:13:49;31.23;;;28.13;;
8359;SDS011;4217;48.762;11.428;2022-12-20T06:23:51;33.33;;;30.03;;
8359;SDS011;4217;48.762;11.428;2022-12-20T06:33:54;32.80;;;29.50;;
8359;SDS011;4217;48.762;11.428;2022-12-20T06:43:59;32.23;;;29.03;;
8359;SDS011;4217;48.762;11.428;2022-12-20T06:54:01;32.30;;;28.87;;
8359;SDS011;4217;48.762;11.428;2022-12-20T07:04:05;30.27;;;27.17;;
8359;SDS011;4217;48.762;11.428;2022-12-20T07:14:07;30.33;;;27.33;;
8359;SDS011;4217;48.762;11.428;2022-12-20T07:24:08;29.27;;;26.53;;
8359;SDS011;4217;48.762;11.428;2022-12-20T07:34:10;28.80;;;26.13;;
8359;SDS011;4217;48.762;11.428;2022-12-20T07:44:12;29.57;;;26.67;;
8359;SDS011;4217;48.762;11.428;2022-12-20T08:04:26;28.87;;;25.97;;
8359;SDS011;4217;48.762;11.428;2022-12-20T08:14:31;29.97;;;27.33;;
8359;SDS011;4217;48.762;11.428;2022-12-20T08:24:32;30.80;;;27.97;;
8359;SDS011;4217;48.762;11.428;2022-12-20T08:34:34;30.17;;;27.63;;
8359;SDS011;4217;48.762;11.428;2022-12-20T08:44:36;29.00;;;26.67;;
8359;SDS011;4217;48.762;11.428;2022-12-20T08:54:37;29.27;;;26.97;;
8359;SDS011;4217;48.762;11.428;2022-12-20T09:04:39;30.23;;;27.63;;
8359;SDS011;4217;48.762;11.428;2022-12-20T09:14:40;27.30;;;25.00;;
8359;SDS011;4217;48.762;11.428;2022-12-20T09:24:42;27.90;;;25.57;;
8359;SDS011;4217;48.762;11.428;2022-12-20T09:34:44;28.53;;;26.13;;
8359;SDS011;4217;48.762;11.428;2022-12-20T09:44:47;29.70;;;27.00;;
8359;SDS011;4217;48.762;11.428;2022-12-20T09:55:00;27.10;;;24.83;;
8359;SDS011;4217;48.762;11.428;2022-12-20T10:05:11;28.27;;;25.87;;
8359;SDS011;4217;48.762;11.428;2022-12-20T10:25:30;26.10;;;23.90;;
8359;SDS011;4217;48.762;11.428;2022-12-20T10:35:37;29.63;;;27.33;;
8359;SDS011;4217;48.762;11.428;2022-12-20T10:45:41;30.27;;;28.07;;
8359;SDS011;4217;48.762;11.428;2022-12-20T10:55:43;30.00;;;27.87;;
8359;SDS011;4217;48.762;11.428;2022-12-20T11:06:01;29.23;;;27.03;;
8359;SDS011;4217;48.762;11.428;2022-12-20T11:16:04;28.57;;;26.57;;
8359;SDS011;4217;48.762;11.428;2022-12-20T11:26:17;31.30;;;29.10;;
8359;SDS011;4217;48.762;11.428;2022-12-20T11:57:28;32.13;;;29.73;;
8359;SDS011;4217;48.762;11.428;2022-12-20T12:07:57;30.70;;;28.50;;
8359;SDS011;4217;48.762;11.428;2022-12-20T12:18:11;30.97;;;28.67;;
8359;SDS011;4217;48.762;11.428;2022-12-20T12:28:18;31.47;;;29.13;;
8359;SDS011;4217;48.762;11.428;2022-12-20T13:19:33;31.53;;;29.13;;
8359;SDS011;4217;48.762;11.428;2022-12-20T13:29:42;31.53;;;29.23;;
8359;SDS011;4217;48.762;11.428;2022-12-20T13:39:53;31.90;;;29.30;;
8359;SDS011;4217;48.762;11.428;2022-12-20T13:49:58;32.53;;;30.23;;
8359;SDS011;4217;48.762;11.428;2022-12-20T14:00:03;31.53;;;29.17;;
8359;SDS011;4217;48.762;11.428;2022-12-20T14:10:16;31.77;;;29.47;;
8359;SDS011;4217;48.762;11.428;2022-12-20T14:20:31;31.57;;;29.17;;
8359;SDS011;4217;48.762;11.428;2022-12-20T14:30:40;33.00;;;30.50;;
8359;SDS011;4217;48.762;11.428;2022-12-20T14:40:46;31.50;;;29.00;;
8359;SDS011;4217;48.762;11.428;2022-12-20T14:50:54;34.97;;;32.37;;
8359;SDS011;4217;48.762;11.428;2022-12-20T15:01:01;33.03;;;30.63;;
8359;SDS011;4217;48.762;11.428;2022-12-20T15:11:17;36.20;;;33.33;;
8359;SDS011;4217;48.762;11.428;2022-12-20T15:31:33;34.97;;;32.17;;
8359;SDS011;4217;48.762;11.428;2022-12-20T15:41:36;35.40;;;32.50;;
8359;SDS011;4217;48.762;11.428;2022-12-20T15:51:40;34.13;;;31.43;;
8359;SDS011;4217;48.762;11.428;2022-12-20T16:01:44;34.67;;;31.90;;
8359;SDS011;4217;48.762;11.428;2022-12-20T16:11:46;35.27;;;32.47;;
8359;SDS011;4217;48.762;11.428;2022-12-20T16:21:50;34.30;;;31.77;;
8359;SDS011;4217;48.762;11.428;2022-12-20T16:31:52;34.47;;;31.67;;
8359;SDS011;4217;48.762;11.428;2022-12-20T16:41:54;34.57;;;31.80;;
8359;SDS011;4217;48.762;11.428;2022-12-20T16:51:55;33.57;;;30.93;;
8359;SDS011;4217;48.762;11.428;2022-12-20T17:01:57;40.17;;;36.87;;
8359;SDS011;4217;48.762;11.428;2022-12-20T17:11:58;35.60;;;32.60;;
8359;SDS011;4217;48.762;11.428;2022-12-20T17:22:00;37.00;;;33.90;;
8359;SDS011;4217;48.762;11.428;2022-12-20T17:32:20;34.57;;;31.77;;
8359;SDS011;4217;48.762;11.428;2022-12-20T17:42:26;36.97;;;33.87;;
8359;SDS011;4217;48.762;11.428;2022-12-20T17:52:32;36.63;;;33.50;;
8359;SDS011;4217;48.762;11.428;2022-12-20T18:02:33;35.10;;;32.23;;
8359;SDS011;4217;48.762;11.428;2022-12-20T18:12:35;38.23;;;35.03;;
8359;SDS011;4217;48.762;11.428;2022-12-20T18:22:38;35.10;;;32.30;;
8359;SDS011;4217;48.762;11.428;2022-12-20T18:32:39;38.10;;;34.70;;
8359;SDS011;4217;48.762;11.428;2022-12-20T18:42:41;37.93;;;34.77;;
8359;SDS011;4217;48.762;11.428;2022-12-20T18:52:42;38.13;;;34.93;;
8359;SDS011;4217;48.762;11.428;2022-12-20T19:02:47;38.73;;;35.60;;
8359;SDS011;4217;48.762;11.428;2022-12-20T19:12:49;39.87;;;36.40;;
8359;SDS011;4217;48.762;11.428;2022-12-20T19:22:53;37.40;;;34.30;;
8359;SDS011;4217;48.762;11.428;2022-12-20T19:32:55;37.20;;;34.27;;
8359;SDS011;4217;48.762;11.428;2022-12-20T19:42:56;36.50;;;33.47;;
8359;SDS011;4217;48.762;11.428;2022-12-20T19:52:58;39.57;;;36.37;;
8359;SDS011;4217;48.762;11.428;2022-12-20T20:03:00;37.00;;;33.87;;
8359;SDS011;4217;48.762;11.428;2022-12-20T20:13:02;38.20;;;35.03;;
8359;SDS011;4217;48.762;11.428;2022-12-20T20:23:04;39.00;;;35.83;;
8359;SDS011;4217;48.762;11.428;2022-12-20T20:33:06;39.83;;;36.27;;
8359;SDS011;4217;48.762;11.428;2022-12-20T20:43:08;41.87;;;38.27;;
8359;SDS011;4217;48.762;11.428;2022-12-20T20:53:10;39.40;;;35.83;;
8359;SDS011;4217;48.762;11.428;2022-12-20T21:03:12;40.13;;;36.60;;
8359;SDS011;4217;48.762;11.428;2022-12-20T21:13:13;39.53;;;36.17;;
8359;SDS011;4217;48.762;11.428;2022-12-20T21:23:15;42.53;;;38.97;;
8359;SDS011;4217;48.762;11.428;2022-12-20T21:33:17;40.50;;;37.13;;
8359;SDS011;4217;48.762;11.428;2022-12-20T21:43:18;40.00;;;36.63;;
8359;SDS011;4217;48.762;11.428;2022-12-20T21:53:20;38.87;;;35.53;;
8359;SDS011;4217;48.762;11.428;2022-12-20T22:03:22;37.53;;;34.37;;
8359;SDS011;4217;48.762;11.428;2022-12-20T22:13:25;38.77;;;35.37;;
8359;SDS011;4217;48.762;11.428;2022-12-20T22:23:27;40.57;;;36.97;;
8359;SDS011;4217;48.762;11.428;2022-12-20T22:33:28;39.20;;;35.90;;
8359;SDS011;4217;48.762;11.428;2022-12-20T22:43:30;40.80;;;37.33;;
8359;SDS011;4217;48.762;11.428;2022-12-20T22:53:32;38.70;;;35.40;;
8359;SDS011;4217;48.762;11.428;2022-12-20T23:03:34;37.27;;;34.17;;
8359;SDS011;4217;48.762;11.428;2022-12-20T23:13:37;38.23;;;34.97;;
8359;SDS011;4217;48.762;11.428;2022-12-20T23:23:58;37.73;;;34.57;;
8359;SDS011;4217;48.762;11.428;2022-12-20T23:34:00;38.50;;;35.33;;
8359;SDS011;4217;48.762;11.428;2022-12-20T23:44:02;39.37;;;35.77;;
8359;SDS011;4217;48.762;11.428;2022-12-20T23:54:05;39.37;;;35.87;;
